createdAt,value
2022-08-20T00:01:26.694Z,99063.63
2022-08-20T00:03:54.094Z,99063.84
2022-08-20T00:06:24.557Z,99065.91
2022-08-20T00:08:52.071Z,99068.31
2022-08-20T00:11:23.497Z,99063.47
2022-08-20T00:13:56.230Z,99066.78
2022-08-20T00:16:25.801Z,99072.09
2022-08-20T00:18:53.639Z,99074.66
2022-08-20T00:21:23.253Z,99071.88
2022-08-20T00:23:53.905Z,99067.06
2022-08-20T00:26:21.478Z,99059.13
2022-08-20T00:28:49.239Z,99056.28
2022-08-20T00:31:20.398Z,99057.38
2022-08-20T00:33:48.442Z,99057.66
2022-08-20T00:36:18.071Z,99053.50
2022-08-20T00:38:47.142Z,99053.78
2022-08-20T00:41:23.384Z,99059.34
2022-08-20T00:44:04.400Z,99053.38
2022-08-20T00:46:32.769Z,99049.53
2022-08-20T00:49:03.890Z,99047.19
2022-08-20T00:51:41.881Z,99053.84
2022-08-20T00:54:20.861Z,99050.97
2022-08-20T00:56:53.182Z,99051.53
2022-08-20T00:59:26.224Z,99056.41
2022-08-20T01:01:55.916Z,99044.72
2022-08-20T01:04:26.390Z,99050.06
2022-08-20T01:06:53.950Z,99042.16
2022-08-20T01:09:50.231Z,99048.72
2022-08-20T01:12:10.130Z,99047.97
2022-08-20T01:14:43.608Z,99056.53
2022-08-20T01:17:15.970Z,99046.84
2022-08-20T01:19:48.840Z,99048.78
2022-08-20T01:22:44.510Z,99046.38
2022-08-20T01:25:19.937Z,99053.94
2022-08-20T01:27:48.475Z,99051.75
2022-08-20T01:30:25.537Z,99049.06
2022-08-20T01:32:52.821Z,99045.75
2022-08-20T01:35:24.928Z,99044.94
2022-08-20T01:37:52.725Z,99052.91
2022-08-20T01:40:29.820Z,99046.66
2022-08-20T01:42:59.111Z,99057.78
2022-08-20T01:45:30.302Z,99054.47
2022-08-20T01:47:58.866Z,99048.41
2022-08-20T01:50:29.304Z,99040.69
2022-08-20T01:53:04.492Z,99038.13
2022-08-20T01:55:32.869Z,99035.44
2022-08-20T01:58:01.434Z,99039.69
2022-08-20T02:00:28.794Z,99034.75
2022-08-20T02:02:56.141Z,99029.13
2022-08-20T02:05:24.091Z,99022.00
2022-08-20T02:07:57.660Z,99026.41
2022-08-20T02:10:25.575Z,99030.25
2022-08-20T02:12:53.228Z,99028.84
2022-08-20T02:15:34.742Z,99027.56
2022-08-20T02:18:10.601Z,99031.91
2022-08-20T02:20:39.566Z,99031.19
2022-08-20T02:23:08.695Z,99032.19
2022-08-20T02:25:40.393Z,99033.28
2022-08-20T02:28:12.053Z,99049.22
2022-08-20T02:30:44.419Z,99047.84
2022-08-20T02:33:13.872Z,99047.66
2022-08-20T02:35:43.101Z,99047.31
2022-08-20T02:38:11.528Z,99042.44
2022-08-20T02:40:39.295Z,99052.63
2022-08-20T02:43:06.720Z,99049.69
2022-08-20T02:45:37.291Z,99047.19
2022-08-20T02:48:05.488Z,99048.53
2022-08-20T02:50:32.907Z,99048.44
2022-08-20T02:53:00.517Z,99062.88
2022-08-20T02:55:28.483Z,99057.81
2022-08-20T02:57:58.732Z,99056.94
2022-08-20T03:00:28.106Z,99062.75
2022-08-20T03:02:55.604Z,99051.13
2022-08-20T03:05:22.954Z,99055.00
2022-08-20T03:07:56.977Z,99063.06
2022-08-20T03:10:27.335Z,99056.13
2022-08-20T03:12:55.154Z,99052.97
2022-08-20T03:15:22.564Z,99052.72
2022-08-20T03:17:50.040Z,99052.16
2022-08-20T03:20:17.437Z,99047.03
2022-08-20T03:22:49.825Z,99039.41
2022-08-20T03:25:17.412Z,99042.50
2022-08-20T03:27:45.685Z,99044.88
2022-08-20T03:30:16.272Z,99047.47
2022-08-20T03:32:44.055Z,99054.28
2022-08-20T03:35:13.556Z,99058.44
2022-08-20T03:37:41.635Z,99060.06
2022-08-20T03:40:19.861Z,99059.44
2022-08-20T03:42:47.246Z,99061.28
2022-08-20T03:45:20.510Z,99049.44
2022-08-20T03:47:49.864Z,99048.47
2022-08-20T03:50:23.492Z,99046.88
2022-08-20T03:52:52.772Z,99057.56
2022-08-20T03:55:21.406Z,99055.94
2022-08-20T03:57:52.248Z,99059.47
2022-08-20T04:00:27.079Z,99065.06
2022-08-20T04:02:57.501Z,99060.84
2022-08-20T04:05:28.289Z,99060.13
2022-08-20T04:08:02.852Z,99060.19
2022-08-20T04:10:31.785Z,99058.28
2022-08-20T04:12:58.986Z,99061.31
2022-08-20T04:15:27.957Z,99067.53
2022-08-20T04:17:55.383Z,99074.00
2022-08-20T04:20:26.156Z,99073.09
2022-08-20T04:22:58.497Z,99068.44
2022-08-20T04:25:29.685Z,99063.72
2022-08-20T04:28:02.094Z,99067.94
2022-08-20T04:30:30.172Z,99074.19
2022-08-20T04:32:59.578Z,99076.75
2022-08-20T04:35:27.291Z,99079.31
2022-08-20T04:38:03.064Z,99073.44
2022-08-20T04:40:49.740Z,99073.72
2022-08-20T04:43:19.778Z,99074.47
2022-08-20T04:45:47.324Z,99075.31
2022-08-20T04:48:15.451Z,99071.81
2022-08-20T04:50:45.292Z,99076.50
2022-08-20T04:53:14.867Z,99072.59
2022-08-20T04:55:43.639Z,99076.50
2022-08-20T04:58:18.122Z,99074.38
2022-08-20T05:00:51.894Z,99081.66
2022-08-20T05:03:20.147Z,99075.41
2022-08-20T05:05:48.174Z,99064.50
2022-08-20T05:08:19.787Z,99066.00
2022-08-20T05:10:48.014Z,99079.41
2022-08-20T05:13:15.524Z,99079.06
2022-08-20T05:15:45.642Z,99089.72
2022-08-20T05:18:13.630Z,99084.66
2022-08-20T05:20:42.451Z,99086.09
2022-08-20T05:23:12.281Z,99080.72
2022-08-20T05:25:40.931Z,99077.78
2022-08-20T05:28:13.844Z,99082.25
2022-08-20T05:30:45.147Z,99080.72
2022-08-20T05:33:19.834Z,99087.03
2022-08-20T05:35:49.370Z,99092.16
2022-08-20T05:38:20.970Z,99087.44
2022-08-20T05:40:48.771Z,99089.63
2022-08-20T05:43:16.129Z,99087.69
2022-08-20T05:45:44.104Z,99091.38
2022-08-20T05:48:16.022Z,99092.47
2022-08-20T05:50:45.437Z,99086.50
2022-08-20T05:53:16.486Z,99084.59
2022-08-20T05:55:45.562Z,99084.94
2022-08-20T05:58:29.288Z,99087.72
2022-08-20T06:00:56.635Z,99082.91
2022-08-20T06:03:42.616Z,99084.88
2022-08-20T06:06:15.109Z,99089.91
2022-08-20T06:08:45.706Z,99087.41
2022-08-20T06:11:12.924Z,99085.38
2022-08-20T06:13:40.274Z,99088.19
2022-08-20T06:16:07.516Z,99099.19
2022-08-20T06:18:35.603Z,99100.28
2022-08-20T06:21:02.881Z,99096.47
2022-08-20T06:23:54.148Z,99087.34
2022-08-20T06:26:24.804Z,99086.09
2022-08-20T06:29:00.952Z,99088.88
2022-08-20T06:31:28.573Z,99087.91
2022-08-20T06:33:56.342Z,99084.56
2022-08-20T06:36:24.721Z,99081.75
2022-08-20T06:38:52.300Z,99080.78
2022-08-20T06:41:19.576Z,99079.06
2022-08-20T06:43:48.281Z,99079.34
2022-08-20T06:46:15.487Z,99077.78
2022-08-20T06:48:42.911Z,99069.00
2022-08-20T06:51:10.723Z,99073.34
2022-08-20T06:53:39.013Z,99066.81
2022-08-20T06:56:06.722Z,99064.66
2022-08-20T06:58:38.505Z,99065.56
2022-08-20T07:01:09.136Z,99065.25
2022-08-20T07:03:42.368Z,99064.09
2022-08-20T07:06:27.699Z,99069.34
2022-08-20T07:08:56.006Z,99068.88
2022-08-20T07:11:28.177Z,99067.94
2022-08-20T07:13:58.704Z,99064.47
2022-08-20T07:16:27.284Z,99067.25
2022-08-20T07:18:54.576Z,99058.47
2022-08-20T07:21:21.935Z,99061.34
2022-08-20T07:23:49.501Z,99052.72
2022-08-20T07:26:19.884Z,99053.41
2022-08-20T07:28:47.698Z,99061.91
2022-08-20T07:31:35.232Z,99057.84
2022-08-20T07:34:05.751Z,99056.03
2022-08-20T07:36:34.620Z,99050.34
2022-08-20T07:39:05.959Z,99052.47
2022-08-20T07:41:34.441Z,99047.66
2022-08-20T07:44:01.796Z,99051.69
2022-08-20T07:46:32.415Z,99054.13
2022-08-20T07:49:00.292Z,99050.91
2022-08-20T07:51:28.625Z,99056.03
2022-08-20T07:53:58.297Z,99045.50
2022-08-20T07:56:27.950Z,99052.00
2022-08-20T07:58:59.141Z,99054.25
2022-08-20T08:01:30.485Z,99048.66
2022-08-20T08:04:01.497Z,99035.88
2022-08-20T08:06:31.420Z,99027.22
2022-08-20T08:09:05.614Z,99029.91
2022-08-20T08:11:37.857Z,99026.34
2022-08-20T08:14:08.568Z,99029.81
2022-08-20T08:16:37.507Z,99024.53
2022-08-20T08:19:09.658Z,99024.41
2022-08-20T08:21:37.095Z,99013.94
2022-08-20T08:24:04.755Z,99006.53
2022-08-20T08:26:32.528Z,99006.47
2022-08-20T08:28:59.780Z,98998.16
2022-08-20T08:31:27.525Z,98995.69
2022-08-20T08:33:56.924Z,98995.22
2022-08-20T08:36:26.896Z,98990.31
2022-08-20T08:38:55.953Z,98988.38
2022-08-20T08:41:52.524Z,98988.44
2022-08-20T08:44:38.647Z,98975.22
2022-08-20T08:47:19.211Z,98971.38
2022-08-20T08:49:48.396Z,98963.72
2022-08-20T08:52:22.347Z,98960.88
2022-08-20T08:54:54.296Z,98964.50
2022-08-20T08:57:24.176Z,98967.97
2022-08-20T09:00:04.356Z,98976.53
2022-08-20T09:02:34.383Z,98964.28
2022-08-20T09:05:04.409Z,98967.16
2022-08-20T09:07:34.715Z,98967.34
2022-08-20T09:10:02.973Z,98965.31
2022-08-20T09:12:30.307Z,98965.16
2022-08-20T09:14:58.337Z,98953.25
2022-08-20T09:17:25.832Z,98966.06
2022-08-20T09:19:53.161Z,98955.91
2022-08-20T09:22:25.541Z,98953.03
2022-08-20T09:24:54.690Z,98951.38
2022-08-20T09:27:22.546Z,98944.06
2022-08-20T09:29:50.315Z,98952.16
2022-08-20T09:32:22.000Z,98945.25
2022-08-20T09:34:56.023Z,98940.50
2022-08-20T09:37:25.621Z,98936.91
2022-08-20T09:39:53.216Z,98929.03
2022-08-20T09:42:29.230Z,98925.63
2022-08-20T09:45:00.796Z,98924.72
2022-08-20T09:47:28.918Z,98929.50
2022-08-20T09:49:56.316Z,98915.16
2022-08-20T09:52:30.748Z,98910.69
2022-08-20T09:55:06.427Z,98904.22
2022-08-20T09:57:33.820Z,98899.53
2022-08-20T10:00:12.560Z,98893.34
2022-08-20T10:02:40.945Z,98898.84
2022-08-20T10:05:12.374Z,98891.97
2022-08-20T10:07:40.686Z,98900.97
2022-08-20T10:10:10.424Z,98890.28
2022-08-20T10:12:37.977Z,98885.81
2022-08-20T10:15:06.117Z,98895.75
2022-08-20T10:17:40.459Z,98887.53
2022-08-20T10:20:10.563Z,98882.81
2022-08-20T10:22:41.001Z,98876.09
2022-08-20T10:25:12.700Z,98877.59
2022-08-20T10:27:42.017Z,98874.84
2022-08-20T10:30:10.243Z,98875.31
2022-08-20T10:32:37.528Z,98870.88
2022-08-20T10:35:06.788Z,98866.91
2022-08-20T10:37:36.854Z,98865.09
2022-08-20T10:40:07.719Z,98869.59
2022-08-20T10:42:37.971Z,98858.19
2022-08-20T10:45:11.517Z,98857.19
2022-08-20T10:47:42.233Z,98853.69
2022-08-20T10:50:16.627Z,98840.56
2022-08-20T10:52:44.227Z,98838.75
2022-08-20T10:55:11.633Z,98839.75
2022-08-20T10:57:41.125Z,98837.41
2022-08-20T11:00:10.397Z,98831.44
2022-08-20T11:02:37.793Z,98832.59
2022-08-20T11:05:06.419Z,98829.00
2022-08-20T11:07:55.565Z,98824.00
2022-08-20T11:10:30.252Z,98824.28
2022-08-20T11:12:57.689Z,98814.09
2022-08-20T11:15:24.976Z,98814.59
2022-08-20T11:17:52.497Z,98807.81
2022-08-20T11:20:22.117Z,98809.41
2022-08-20T11:22:49.514Z,98798.88
2022-08-20T11:25:17.253Z,98797.22
2022-08-20T11:27:47.475Z,98796.75
2022-08-20T11:30:24.536Z,98799.31
2022-08-20T11:32:52.008Z,98799.06
2022-08-20T11:38:09.128Z,98784.72
2022-08-20T11:40:36.598Z,98781.88
2022-08-20T11:43:14.508Z,98781.81
2022-08-20T11:45:44.782Z,98772.03
2022-08-20T11:48:14.412Z,98774.91
2022-08-20T11:50:51.418Z,98771.75
2022-08-20T11:53:19.067Z,98771.03
2022-08-20T11:56:07.428Z,98765.53
2022-08-20T11:58:42.912Z,98762.69
2022-08-20T12:01:32.030Z,98759.38
2022-08-20T12:03:59.424Z,98758.22
2022-08-20T12:06:30.459Z,98760.28
2022-08-20T12:08:57.822Z,98757.59
2022-08-20T12:11:25.092Z,98756.38
2022-08-20T12:13:53.705Z,98740.88
2022-08-20T12:16:21.447Z,98745.31
2022-08-20T12:18:49.758Z,98743.94
2022-08-20T12:21:17.710Z,98738.47
2022-08-20T12:23:45.571Z,98736.53
2022-08-20T12:26:13.062Z,98728.31
2022-08-20T12:28:40.727Z,98739.41
2022-08-20T12:31:08.023Z,98741.84
2022-08-20T12:33:36.143Z,98740.88
2022-08-20T12:36:04.474Z,98736.06
2022-08-20T12:38:31.994Z,98725.19
2022-08-20T12:40:59.393Z,98714.94
2022-08-20T12:43:26.734Z,98717.34
2022-08-20T12:45:56.322Z,98709.66
2022-08-20T12:48:24.961Z,98711.31
2022-08-20T12:50:52.933Z,98704.03
2022-08-20T12:53:20.512Z,98701.47
2022-08-20T12:55:51.664Z,98705.72
2022-08-20T12:58:19.378Z,98705.63
2022-08-20T13:00:50.737Z,98707.09
2022-08-20T13:03:21.573Z,98694.84
2022-08-20T13:05:50.274Z,98692.50
2022-08-20T13:08:20.636Z,98690.06
2022-08-20T13:10:51.462Z,98678.53
2022-08-20T13:13:23.341Z,98671.97
2022-08-20T13:15:52.316Z,98678.66
2022-08-20T13:18:21.387Z,98671.56
2022-08-20T13:20:50.128Z,98665.22
2022-08-20T13:23:37.368Z,98668.59
2022-08-20T13:26:05.401Z,98665.88
2022-08-20T13:28:32.774Z,98650.66
2022-08-20T13:31:02.116Z,98650.97
2022-08-20T13:33:30.570Z,98638.38
2022-08-20T13:35:58.272Z,98640.72
2022-08-20T13:38:26.436Z,98640.16
2022-08-20T13:40:53.784Z,98635.59
2022-08-20T13:43:22.368Z,98631.94
2022-08-20T13:45:50.812Z,98633.41
2022-08-20T13:48:18.142Z,98624.44
2022-08-20T13:50:47.017Z,98619.06
2022-08-20T13:53:15.433Z,98608.41
2022-08-20T13:55:42.971Z,98602.66
2022-08-20T13:58:11.260Z,98600.34
2022-08-20T14:00:38.884Z,98597.78
2022-08-20T14:03:07.674Z,98596.97
2022-08-20T14:05:36.781Z,98599.06
2022-08-20T14:08:08.871Z,98588.63
2022-08-20T14:10:36.818Z,98596.50
2022-08-20T14:13:05.803Z,98591.03
2022-08-20T14:15:36.316Z,98595.78
2022-08-20T14:18:05.396Z,98596.59
2022-08-20T14:20:34.796Z,98602.53
2022-08-20T14:23:06.354Z,98608.78
2022-08-20T14:25:37.928Z,98604.59
2022-08-20T14:28:14.050Z,98599.66
2022-08-20T14:30:42.305Z,98593.63
2022-08-20T14:33:09.890Z,98587.94
2022-08-20T14:35:41.619Z,98598.28
2022-08-20T14:38:09.607Z,98596.19
2022-08-20T14:40:37.191Z,98591.53
2022-08-20T14:43:05.191Z,98585.13
2022-08-20T14:45:32.617Z,98593.78
2022-08-20T14:48:01.136Z,98599.69
2022-08-20T14:50:32.083Z,98590.72
2022-08-20T14:53:01.677Z,98588.72
2022-08-20T14:55:37.691Z,98589.91
2022-08-20T14:58:11.285Z,98583.22
2022-08-20T15:00:39.858Z,98582.31
2022-08-20T15:03:08.853Z,98584.94
2022-08-20T15:05:39.527Z,98574.28
2022-08-20T15:08:10.593Z,98574.78
2022-08-20T15:10:39.706Z,98568.84
2022-08-20T15:13:07.733Z,98572.16
2022-08-20T15:15:35.377Z,98571.47
2022-08-20T15:18:03.867Z,98578.66
2022-08-20T15:20:33.620Z,98570.38
2022-08-20T15:23:01.534Z,98576.81
2022-08-20T15:25:36.600Z,98566.78
2022-08-20T15:28:06.522Z,98571.63
2022-08-20T15:30:34.076Z,98570.97
2022-08-20T15:33:02.013Z,98569.84
2022-08-20T15:35:29.782Z,98568.34
2022-08-20T15:37:58.814Z,98567.38
2022-08-20T15:40:29.085Z,98565.50
2022-08-20T15:43:01.151Z,98573.84
2022-08-20T15:45:29.299Z,98579.84
2022-08-20T15:48:14.151Z,98577.19
2022-08-20T15:51:09.166Z,98573.75
2022-08-20T15:53:43.350Z,98577.03
2022-08-20T15:56:32.071Z,98575.53
2022-08-20T15:59:36.815Z,98577.31
2022-08-20T16:02:32.482Z,98580.03
2022-08-20T16:05:00.530Z,98575.56
2022-08-20T16:07:46.390Z,98581.47
2022-08-20T16:10:18.636Z,98580.97
2022-08-20T16:12:50.750Z,98585.19
2022-08-20T16:15:40.671Z,98580.72
2022-08-20T16:18:21.041Z,98576.25
2022-08-20T16:20:52.369Z,98573.47
2022-08-20T16:23:28.460Z,98570.41
2022-08-20T16:26:10.739Z,98567.88
2022-08-20T16:28:59.223Z,98583.50
2022-08-20T16:31:32.591Z,98578.03
2022-08-20T16:34:33.593Z,98577.97
2022-08-20T16:37:39.437Z,98581.50
2022-08-20T16:40:25.035Z,98586.19
2022-08-20T16:42:54.491Z,98590.13
2022-08-20T16:45:30.422Z,98591.13
2022-08-20T16:48:01.934Z,98590.28
2022-08-20T16:50:39.164Z,98587.78
2022-08-20T16:53:10.897Z,98595.09
2022-08-20T16:55:38.267Z,98601.56
2022-08-20T16:58:05.571Z,98605.47
2022-08-20T17:00:45.046Z,98601.97
2022-08-20T17:03:38.549Z,98603.31
2022-08-20T17:06:22.035Z,98605.94
2022-08-20T17:08:52.467Z,98599.91
2022-08-20T17:11:33.127Z,98612.66
2022-08-20T17:14:10.485Z,98615.16
2022-08-20T17:16:43.344Z,98603.75
2022-08-20T17:19:31.086Z,98618.84
2022-08-20T17:22:19.558Z,98622.09
2022-08-20T17:24:47.616Z,98626.31
2022-08-20T17:27:28.091Z,98624.25
2022-08-20T17:30:05.591Z,98632.59
2022-08-20T17:32:34.831Z,98619.81
2022-08-20T17:35:05.393Z,98620.47
2022-08-20T17:37:40.557Z,98620.34
2022-08-20T17:40:19.531Z,98624.41
2022-08-20T17:42:51.035Z,98636.22
2022-08-20T17:45:32.229Z,98639.03
2022-08-20T17:48:01.480Z,98639.50
2022-08-20T17:50:33.700Z,98647.78
2022-08-20T17:53:14.629Z,98664.19
2022-08-20T17:55:42.827Z,98673.34
2022-08-20T17:58:13.816Z,98675.19
2022-08-20T18:00:42.035Z,98677.63
2022-08-20T18:03:26.704Z,98689.94
2022-08-20T18:06:12.528Z,98698.47
2022-08-20T18:08:51.370Z,98708.69
2022-08-20T18:11:27.878Z,98715.47
2022-08-20T18:14:18.517Z,98720.53
2022-08-20T18:16:52.103Z,98716.81
2022-08-20T18:20:18.109Z,98721.75
2022-08-20T18:22:57.862Z,98719.94
2022-08-20T18:25:56.291Z,98726.38
2022-08-20T18:28:46.357Z,98721.81
2022-08-20T18:31:49.024Z,98733.00
2022-08-20T18:34:21.266Z,98727.97
2022-08-20T18:37:02.584Z,98739.03
2022-08-20T18:39:31.645Z,98738.50
2022-08-20T18:42:12.358Z,98744.88
2022-08-20T18:44:51.132Z,98743.81
2022-08-20T18:47:40.087Z,98754.38
2022-08-20T18:50:16.206Z,98750.09
2022-08-20T18:52:53.899Z,98748.88
2022-08-20T18:55:30.755Z,98738.25
2022-08-20T18:58:04.746Z,98738.22
2022-08-20T19:00:40.039Z,98731.28
2022-08-20T19:03:07.608Z,98735.03
2022-08-20T19:05:47.099Z,98733.97
2022-08-20T19:08:18.548Z,98735.63
2022-08-20T19:10:49.258Z,98741.56
2022-08-20T19:13:28.478Z,98748.53
2022-08-20T19:16:08.665Z,98756.56
2022-08-20T19:18:46.984Z,98772.84
2022-08-20T19:21:19.909Z,98759.47
2022-08-20T19:23:51.021Z,98759.75
2022-08-20T19:26:25.720Z,98765.59
2022-08-20T19:29:19.695Z,98762.25
2022-08-20T19:31:48.441Z,98765.09
2022-08-20T19:34:25.871Z,98760.84
2022-08-20T19:37:06.707Z,98763.97
2022-08-20T19:39:48.468Z,98768.78
2022-08-20T19:42:24.099Z,98766.66
2022-08-20T19:45:30.247Z,98766.81
2022-08-20T19:48:15.833Z,98773.13
2022-08-20T19:50:57.675Z,98824.94
2022-08-20T19:53:31.335Z,98875.34
2022-08-20T19:56:03.001Z,98892.34
2022-08-20T19:58:32.542Z,98867.41
2022-08-20T20:01:02.623Z,98867.91
2022-08-20T20:03:35.791Z,98881.44
2022-08-20T20:06:19.589Z,98916.00
2022-08-20T20:08:53.182Z,98907.28
2022-08-20T20:11:24.924Z,98924.97
2022-08-20T20:13:52.192Z,98920.72
2022-08-20T20:16:21.914Z,98918.00
2022-08-20T20:19:09.179Z,98925.13
2022-08-20T20:21:46.315Z,98936.41
2022-08-20T20:24:30.297Z,98934.44
2022-08-20T20:26:59.763Z,98940.84
2022-08-20T20:29:34.361Z,98963.84
2022-08-20T20:32:13.203Z,98967.03
2022-08-20T20:34:55.013Z,98977.25
2022-08-20T20:37:50.652Z,98957.28
2022-08-20T20:40:28.265Z,98946.16
2022-08-20T20:43:04.113Z,98936.50
2022-08-20T20:45:35.262Z,98944.50
2022-08-20T20:48:15.178Z,98949.63
2022-08-20T20:50:42.535Z,98949.88
2022-08-20T20:53:10.361Z,98940.53
2022-08-20T20:55:38.826Z,98948.25
2022-08-20T20:58:08.013Z,98950.84
2022-08-20T21:00:36.024Z,98968.00
2022-08-20T21:03:04.365Z,98971.19
2022-08-20T21:05:36.613Z,98969.91
2022-08-20T21:08:08.883Z,98970.34
2022-08-20T21:10:38.766Z,98966.25
2022-08-20T21:13:08.572Z,98985.00
2022-08-20T21:15:38.560Z,99002.00
2022-08-20T21:18:09.746Z,99006.25
2022-08-20T21:20:37.673Z,99014.19
2022-08-20T21:23:05.282Z,99012.03
2022-08-20T21:25:35.221Z,99019.34
2022-08-20T21:28:02.938Z,99014.03
2022-08-20T21:30:30.841Z,98988.69
2022-08-20T21:32:58.361Z,99002.84
2022-08-20T21:35:26.464Z,98994.84
2022-08-20T21:37:54.789Z,98978.13
2022-08-20T21:40:22.264Z,98960.66
2022-08-20T21:42:50.202Z,98965.03
2022-08-20T21:45:19.679Z,98952.09
2022-08-20T21:47:48.680Z,98946.72
2022-08-20T21:50:19.399Z,98942.19
2022-08-20T21:52:59.515Z,98947.06
2022-08-20T21:55:30.295Z,98959.06
2022-08-20T21:58:02.547Z,98968.63
2022-08-20T22:00:52.596Z,98977.66
2022-08-20T22:03:26.848Z,98975.25
2022-08-20T22:05:55.039Z,98976.22
2022-08-20T22:08:24.144Z,98972.72
2022-08-20T22:10:57.242Z,98966.38
2022-08-20T22:13:32.655Z,98946.53
2022-08-20T22:16:07.824Z,98929.28
2022-08-20T22:18:36.127Z,98919.50
2022-08-20T22:21:06.874Z,98905.25
2022-08-20T22:23:34.327Z,98938.59
2022-08-20T22:26:01.572Z,98964.47
2022-08-20T22:28:28.812Z,98985.59
2022-08-20T22:30:56.117Z,99019.31
2022-08-20T22:33:24.823Z,99021.63
2022-08-20T22:35:55.657Z,98998.66
2022-08-20T22:38:23.350Z,98988.03
2022-08-20T22:40:51.940Z,98984.84
2022-08-20T22:43:19.317Z,98974.22
2022-08-20T22:45:49.582Z,98966.84
2022-08-20T22:48:20.002Z,98936.31
2022-08-20T22:50:49.051Z,98927.41
2022-08-20T22:53:19.742Z,98921.72
2022-08-20T22:55:47.609Z,98920.22
2022-08-20T22:58:16.240Z,98913.97
2022-08-20T23:00:46.273Z,98916.38
2022-08-20T23:03:16.133Z,98927.59
2022-08-20T23:05:48.161Z,98919.94
2022-08-20T23:08:16.575Z,98914.78
2022-08-20T23:10:44.027Z,98903.59
2022-08-20T23:13:11.329Z,98888.25
2022-08-20T23:15:45.151Z,98891.09
2022-08-20T23:18:17.467Z,98890.75
2022-08-20T23:20:49.203Z,98881.19
2022-08-20T23:23:16.544Z,98873.28
2022-08-20T23:25:43.832Z,98861.97
2022-08-20T23:28:11.527Z,98877.34
2022-08-20T23:30:38.863Z,98871.44
2022-08-20T23:33:06.109Z,98866.34
2022-08-20T23:35:33.805Z,98853.19
2022-08-20T23:38:01.332Z,98861.31
2022-08-20T23:40:30.050Z,98846.50
2022-08-20T23:42:58.253Z,98861.34
2022-08-20T23:45:26.043Z,98897.28
2022-08-20T23:47:53.498Z,98926.47
2022-08-20T23:50:24.220Z,98920.28
2022-08-20T23:52:52.129Z,98914.88
2022-08-20T23:55:20.712Z,98903.28
2022-08-20T23:57:47.932Z,98876.13
